sensor_id;sensor_type;location;lat;lon;timestamp;P1;durP1;ratioP1;P2;durP2;ratioP2
15665;SDS011;20725;51.196;3.510;2023-03-14T00:01:57;6.20;;;2.30;;
15665;SDS011;20725;51.196;3.510;2023-03-14T00:04:25;5.57;;;2.20;;
15665;SDS011;20725;51.196;3.510;2023-03-14T00:06:51;6.80;;;2.43;;
15665;SDS011;20725;51.196;3.510;2023-03-14T00:09:18;6.90;;;2.57;;
15665;SDS011;20725;51.196;3.510;2023-03-14T00:11:46;9.77;;;2.30;;
15665;SDS011;20725;51.196;3.510;2023-03-14T00:14:13;3.80;;;2.27;;
15665;SDS011;20725;51.196;3.510;2023-03-14T00:16:43;7.10;;;2.57;;
15665;SDS011;20725;51.196;3.510;2023-03-14T00:19:12;5.17;;;2.13;;
15665;SDS011;20725;51.196;3.510;2023-03-14T00:21:39;4.43;;;2.20;;
15665;SDS011;20725;51.196;3.510;2023-03-14T00:24:06;3.80;;;2.03;;
15665;SDS011;20725;51.196;3.510;2023-03-14T00:26:33;5.90;;;2.60;;
15665;SDS011;20725;51.196;3.510;2023-03-14T00:29:00;3.87;;;2.10;;
15665;SDS011;20725;51.196;3.510;2023-03-14T00:31:27;10.27;;;3.03;;
15665;SDS011;20725;51.196;3.510;2023-03-14T00:33:56;5.13;;;2.17;;
15665;SDS011;20725;51.196;3.510;2023-03-14T00:36:23;4.83;;;2.53;;
15665;SDS011;20725;51.196;3.510;2023-03-14T00:38:50;6.07;;;2.60;;
15665;SDS011;20725;51.196;3.510;2023-03-14T00:41:18;8.57;;;2.57;;
15665;SDS011;20725;51.196;3.510;2023-03-14T00:43:47;4.80;;;2.53;;
15665;SDS011;20725;51.196;3.510;2023-03-14T00:46:14;5.77;;;2.30;;
15665;SDS011;20725;51.196;3.510;2023-03-14T00:48:41;7.40;;;3.23;;
15665;SDS011;20725;51.196;3.510;2023-03-14T00:51:11;7.10;;;2.30;;
15665;SDS011;20725;51.196;3.510;2023-03-14T00:53:40;7.30;;;2.80;;
15665;SDS011;20725;51.196;3.510;2023-03-14T00:56:08;7.20;;;3.00;;
15665;SDS011;20725;51.196;3.510;2023-03-14T00:58:36;7.20;;;2.77;;
15665;SDS011;20725;51.196;3.510;2023-03-14T01:06:11;9.83;;;3.00;;
15665;SDS011;20725;51.196;3.510;2023-03-14T01:08:40;9.10;;;2.80;;
15665;SDS011;20725;51.196;3.510;2023-03-14T01:11:08;9.27;;;2.77;;
15665;SDS011;20725;51.196;3.510;2023-03-14T01:13:37;5.57;;;2.50;;
15665;SDS011;20725;51.196;3.510;2023-03-14T01:16:05;8.60;;;3.17;;
15665;SDS011;20725;51.196;3.510;2023-03-14T01:18:33;6.90;;;2.77;;
15665;SDS011;20725;51.196;3.510;2023-03-14T01:21:04;7.70;;;2.80;;
15665;SDS011;20725;51.196;3.510;2023-03-14T01:23:38;9.63;;;2.93;;
15665;SDS011;20725;51.196;3.510;2023-03-14T01:26:05;12.93;;;3.53;;
15665;SDS011;20725;51.196;3.510;2023-03-14T01:28:35;7.33;;;2.73;;
15665;SDS011;20725;51.196;3.510;2023-03-14T01:31:02;9.67;;;2.97;;
15665;SDS011;20725;51.196;3.510;2023-03-14T01:33:30;10.27;;;2.87;;
15665;SDS011;20725;51.196;3.510;2023-03-14T01:35:57;9.20;;;3.00;;
15665;SDS011;20725;51.196;3.510;2023-03-14T01:38:24;9.67;;;3.03;;
15665;SDS011;20725;51.196;3.510;2023-03-14T01:40:52;8.67;;;2.83;;
15665;SDS011;20725;51.196;3.510;2023-03-14T01:43:19;7.37;;;3.40;;
15665;SDS011;20725;51.196;3.510;2023-03-14T01:46:01;10.40;;;3.50;;
15665;SDS011;20725;51.196;3.510;2023-03-14T01:48:46;7.23;;;2.20;;
15665;SDS011;20725;51.196;3.510;2023-03-14T01:51:19;9.43;;;3.13;;
15665;SDS011;20725;51.196;3.510;2023-03-14T01:53:49;10.47;;;3.00;;
15665;SDS011;20725;51.196;3.510;2023-03-14T01:56:20;11.60;;;3.40;;
15665;SDS011;20725;51.196;3.510;2023-03-14T01:58:48;9.97;;;2.90;;
15665;SDS011;20725;51.196;3.510;2023-03-14T02:01:19;9.10;;;2.67;;
15665;SDS011;20725;51.196;3.510;2023-03-14T02:03:50;8.70;;;2.70;;
15665;SDS011;20725;51.196;3.510;2023-03-14T02:06:21;12.70;;;3.67;;
15665;SDS011;20725;51.196;3.510;2023-03-14T02:08:51;9.10;;;2.93;;
15665;SDS011;20725;51.196;3.510;2023-03-14T02:11:20;8.27;;;2.40;;
15665;SDS011;20725;51.196;3.510;2023-03-14T02:13:52;8.30;;;2.90;;
15665;SDS011;20725;51.196;3.510;2023-03-14T02:16:19;7.80;;;2.57;;
15665;SDS011;20725;51.196;3.510;2023-03-14T02:18:46;6.43;;;2.60;;
15665;SDS011;20725;51.196;3.510;2023-03-14T02:21:15;7.50;;;2.53;;
15665;SDS011;20725;51.196;3.510;2023-03-14T02:23:48;6.50;;;2.40;;
15665;SDS011;20725;51.196;3.510;2023-03-14T02:26:24;8.03;;;2.93;;
15665;SDS011;20725;51.196;3.510;2023-03-14T02:28:59;4.70;;;2.07;;
15665;SDS011;20725;51.196;3.510;2023-03-14T02:31:26;6.63;;;2.60;;
15665;SDS011;20725;51.196;3.510;2023-03-14T02:33:53;7.10;;;2.17;;
15665;SDS011;20725;51.196;3.510;2023-03-14T02:36:22;6.10;;;2.10;;
15665;SDS011;20725;51.196;3.510;2023-03-14T02:38:51;10.20;;;2.37;;
15665;SDS011;20725;51.196;3.510;2023-03-14T02:41:21;5.37;;;2.23;;
15665;SDS011;20725;51.196;3.510;2023-03-14T02:43:49;7.10;;;2.50;;
15665;SDS011;20725;51.196;3.510;2023-03-14T02:46:18;5.20;;;2.30;;
15665;SDS011;20725;51.196;3.510;2023-03-14T02:48:47;4.93;;;1.90;;
15665;SDS011;20725;51.196;3.510;2023-03-14T02:51:19;5.13;;;1.80;;
15665;SDS011;20725;51.196;3.510;2023-03-14T02:53:47;2.57;;;1.63;;
15665;SDS011;20725;51.196;3.510;2023-03-14T02:56:14;3.73;;;1.30;;
15665;SDS011;20725;51.196;3.510;2023-03-14T02:58:41;4.40;;;1.93;;
15665;SDS011;20725;51.196;3.510;2023-03-14T03:01:08;4.20;;;1.50;;
15665;SDS011;20725;51.196;3.510;2023-03-14T03:03:36;4.67;;;2.03;;
15665;SDS011;20725;51.196;3.510;2023-03-14T03:06:03;5.77;;;1.80;;
15665;SDS011;20725;51.196;3.510;2023-03-14T03:08:31;5.70;;;1.70;;
15665;SDS011;20725;51.196;3.510;2023-03-14T03:10:58;1.30;;;1.20;;
15665;SDS011;20725;51.196;3.510;2023-03-14T03:13:25;2.73;;;1.70;;
15665;SDS011;20725;51.196;3.510;2023-03-14T03:15:52;4.17;;;1.70;;
15665;SDS011;20725;51.196;3.510;2023-03-14T03:18:19;3.23;;;1.50;;
15665;SDS011;20725;51.196;3.510;2023-03-14T03:20:47;2.67;;;1.63;;
15665;SDS011;20725;51.196;3.510;2023-03-14T03:23:14;2.37;;;1.73;;
15665;SDS011;20725;51.196;3.510;2023-03-14T03:25:41;2.93;;;1.87;;
15665;SDS011;20725;51.196;3.510;2023-03-14T03:28:13;2.73;;;1.80;;
15665;SDS011;20725;51.196;3.510;2023-03-14T03:30:41;1.83;;;1.50;;
15665;SDS011;20725;51.196;3.510;2023-03-14T03:33:08;2.07;;;1.77;;
15665;SDS011;20725;51.196;3.510;2023-03-14T03:35:41;3.00;;;1.63;;
15665;SDS011;20725;51.196;3.510;2023-03-14T03:38:11;3.70;;;2.20;;
15665;SDS011;20725;51.196;3.510;2023-03-14T03:40:38;3.73;;;2.40;;
15665;SDS011;20725;51.196;3.510;2023-03-14T03:43:05;4.37;;;2.40;;
15665;SDS011;20725;51.196;3.510;2023-03-14T03:45:32;3.20;;;1.87;;
15665;SDS011;20725;51.196;3.510;2023-03-14T03:47:59;4.03;;;1.80;;
15665;SDS011;20725;51.196;3.510;2023-03-14T03:50:26;2.50;;;2.30;;
15665;SDS011;20725;51.196;3.510;2023-03-14T03:52:53;3.03;;;2.60;;
15665;SDS011;20725;51.196;3.510;2023-03-14T03:55:21;4.50;;;2.20;;
15665;SDS011;20725;51.196;3.510;2023-03-14T03:57:51;3.30;;;2.43;;
15665;SDS011;20725;51.196;3.510;2023-03-14T04:00:19;5.17;;;2.57;;
15665;SDS011;20725;51.196;3.510;2023-03-14T04:02:46;4.20;;;2.60;;
15665;SDS011;20725;51.196;3.510;2023-03-14T04:05:15;4.87;;;2.43;;
15665;SDS011;20725;51.196;3.510;2023-03-14T04:07:43;3.93;;;2.77;;
15665;SDS011;20725;51.196;3.510;2023-03-14T04:10:14;2.77;;;2.57;;
15665;SDS011;20725;51.196;3.510;2023-03-14T04:12:44;3.33;;;2.87;;
15665;SDS011;20725;51.196;3.510;2023-03-14T04:15:17;2.70;;;2.50;;
15665;SDS011;20725;51.196;3.510;2023-03-14T04:17:45;4.63;;;2.83;;
15665;SDS011;20725;51.196;3.510;2023-03-14T04:20:16;4.60;;;2.60;;
15665;SDS011;20725;51.196;3.510;2023-03-14T04:22:43;3.23;;;2.50;;
15665;SDS011;20725;51.196;3.510;2023-03-14T04:25:10;4.83;;;2.60;;
15665;SDS011;20725;51.196;3.510;2023-03-14T04:27:38;3.63;;;2.63;;
15665;SDS011;20725;51.196;3.510;2023-03-14T04:30:10;3.07;;;2.70;;
15665;SDS011;20725;51.196;3.510;2023-03-14T04:32:40;3.63;;;2.97;;
15665;SDS011;20725;51.196;3.510;2023-03-14T04:35:07;4.20;;;2.60;;
15665;SDS011;20725;51.196;3.510;2023-03-14T04:37:35;4.07;;;2.43;;
15665;SDS011;20725;51.196;3.510;2023-03-14T04:40:02;5.27;;;2.93;;
15665;SDS011;20725;51.196;3.510;2023-03-14T04:42:31;3.90;;;2.57;;
15665;SDS011;20725;51.196;3.510;2023-03-14T04:44:58;4.43;;;3.33;;
15665;SDS011;20725;51.196;3.510;2023-03-14T04:47:27;7.10;;;2.90;;
15665;SDS011;20725;51.196;3.510;2023-03-14T04:49:54;4.30;;;2.60;;
15665;SDS011;20725;51.196;3.510;2023-03-14T04:52:21;4.10;;;2.40;;
15665;SDS011;20725;51.196;3.510;2023-03-14T04:54:48;4.13;;;3.03;;
15665;SDS011;20725;51.196;3.510;2023-03-14T04:57:15;2.80;;;2.43;;
15665;SDS011;20725;51.196;3.510;2023-03-14T04:59:42;7.17;;;3.10;;
15665;SDS011;20725;51.196;3.510;2023-03-14T05:02:09;5.60;;;3.00;;
15665;SDS011;20725;51.196;3.510;2023-03-14T05:04:37;4.13;;;3.13;;
15665;SDS011;20725;51.196;3.510;2023-03-14T05:07:09;4.87;;;3.80;;
15665;SDS011;20725;51.196;3.510;2023-03-14T05:09:47;4.17;;;3.20;;
15665;SDS011;20725;51.196;3.510;2023-03-14T05:12:18;4.37;;;3.37;;
15665;SDS011;20725;51.196;3.510;2023-03-14T05:15:17;7.63;;;3.77;;
15665;SDS011;20725;51.196;3.510;2023-03-14T05:18:04;6.70;;;3.83;;
15665;SDS011;20725;51.196;3.510;2023-03-14T05:21:11;12.50;;;4.20;;
15665;SDS011;20725;51.196;3.510;2023-03-14T05:24:21;10.03;;;3.17;;
15665;SDS011;20725;51.196;3.510;2023-03-14T05:31:01;6.00;;;3.17;;
15665;SDS011;20725;51.196;3.510;2023-03-14T05:33:40;8.00;;;3.40;;
15665;SDS011;20725;51.196;3.510;2023-03-14T05:36:25;8.40;;;3.60;;
15665;SDS011;20725;51.196;3.510;2023-03-14T05:39:07;9.63;;;3.67;;
15665;SDS011;20725;51.196;3.510;2023-03-14T05:41:43;9.53;;;3.90;;
15665;SDS011;20725;51.196;3.510;2023-03-14T05:44:45;11.77;;;4.10;;
15665;SDS011;20725;51.196;3.510;2023-03-14T05:47:14;10.00;;;2.93;;
15665;SDS011;20725;51.196;3.510;2023-03-14T05:49:58;10.00;;;3.00;;
15665;SDS011;20725;51.196;3.510;2023-03-14T05:53:29;7.77;;;2.93;;
15665;SDS011;20725;51.196;3.510;2023-03-14T05:56:12;10.23;;;3.07;;
15665;SDS011;20725;51.196;3.510;2023-03-14T05:58:44;11.80;;;3.07;;
15665;SDS011;20725;51.196;3.510;2023-03-14T06:01:57;8.10;;;2.90;;
15665;SDS011;20725;51.196;3.510;2023-03-14T06:04:30;9.37;;;2.97;;
15665;SDS011;20725;51.196;3.510;2023-03-14T06:07:13;7.10;;;3.40;;
15665;SDS011;20725;51.196;3.510;2023-03-14T06:10:08;8.53;;;3.53;;
15665;SDS011;20725;51.196;3.510;2023-03-14T06:12:47;7.57;;;3.70;;
15665;SDS011;20725;51.196;3.510;2023-03-14T06:15:26;7.97;;;3.83;;
15665;SDS011;20725;51.196;3.510;2023-03-14T06:17:56;7.07;;;3.27;;
15665;SDS011;20725;51.196;3.510;2023-03-14T06:20:23;6.80;;;3.17;;
15665;SDS011;20725;51.196;3.510;2023-03-14T06:22:53;8.80;;;3.43;;
15665;SDS011;20725;51.196;3.510;2023-03-14T06:25:22;5.20;;;3.43;;
15665;SDS011;20725;51.196;3.510;2023-03-14T06:27:49;5.20;;;3.80;;
15665;SDS011;20725;51.196;3.510;2023-03-14T06:30:17;10.50;;;4.00;;
15665;SDS011;20725;51.196;3.510;2023-03-14T06:32:44;7.67;;;3.90;;
15665;SDS011;20725;51.196;3.510;2023-03-14T06:35:11;12.67;;;4.10;;
15665;SDS011;20725;51.196;3.510;2023-03-14T06:37:38;10.53;;;3.90;;
15665;SDS011;20725;51.196;3.510;2023-03-14T06:40:16;14.80;;;4.83;;
15665;SDS011;20725;51.196;3.510;2023-03-14T06:43:14;10.63;;;5.03;;
15665;SDS011;20725;51.196;3.510;2023-03-14T06:46:01;9.77;;;4.93;;
15665;SDS011;20725;51.196;3.510;2023-03-14T06:48:43;14.50;;;6.20;;
15665;SDS011;20725;51.196;3.510;2023-03-14T06:54:29;13.97;;;5.87;;
15665;SDS011;20725;51.196;3.510;2023-03-14T06:57:27;15.80;;;7.47;;
15665;SDS011;20725;51.196;3.510;2023-03-14T07:00:31;9.43;;;6.40;;
15665;SDS011;20725;51.196;3.510;2023-03-14T07:03:20;14.67;;;5.73;;
15665;SDS011;20725;51.196;3.510;2023-03-14T07:06:20;10.60;;;6.07;;
15665;SDS011;20725;51.196;3.510;2023-03-14T07:08:56;9.57;;;5.60;;
15665;SDS011;20725;51.196;3.510;2023-03-14T07:11:45;6.83;;;5.87;;
15665;SDS011;20725;51.196;3.510;2023-03-14T07:17:39;5.90;;;4.87;;
15665;SDS011;20725;51.196;3.510;2023-03-14T07:20:31;4.60;;;4.20;;
15665;SDS011;20725;51.196;3.510;2023-03-14T07:23:45;8.07;;;5.00;;
15665;SDS011;20725;51.196;3.510;2023-03-14T07:26:23;8.33;;;4.80;;
15665;SDS011;20725;51.196;3.510;2023-03-14T07:29:30;6.17;;;4.53;;
15665;SDS011;20725;51.196;3.510;2023-03-14T07:32:22;7.17;;;4.93;;
15665;SDS011;20725;51.196;3.510;2023-03-14T07:38:50;4.67;;;3.60;;
15665;SDS011;20725;51.196;3.510;2023-03-14T07:42:13;8.57;;;3.73;;
15665;SDS011;20725;51.196;3.510;2023-03-14T07:45:05;10.00;;;3.80;;
15665;SDS011;20725;51.196;3.510;2023-03-14T07:54:24;8.80;;;3.83;;
15665;SDS011;20725;51.196;3.510;2023-03-14T07:57:41;7.10;;;4.00;;
15665;SDS011;20725;51.196;3.510;2023-03-14T08:01:58;5.50;;;4.80;;
15665;SDS011;20725;51.196;3.510;2023-03-14T08:04:17;12.13;;;6.60;;
15665;SDS011;20725;51.196;3.510;2023-03-14T08:13:51;8.37;;;5.20;;
15665;SDS011;20725;51.196;3.510;2023-03-14T08:16:53;8.37;;;5.47;;
15665;SDS011;20725;51.196;3.510;2023-03-14T08:19:57;8.20;;;5.70;;
15665;SDS011;20725;51.196;3.510;2023-03-14T08:22:54;9.00;;;4.33;;
15665;SDS011;20725;51.196;3.510;2023-03-14T08:26:26;6.03;;;4.10;;
15665;SDS011;20725;51.196;3.510;2023-03-14T08:32:34;8.97;;;4.40;;
15665;SDS011;20725;51.196;3.510;2023-03-14T08:36:00;7.83;;;4.50;;
15665;SDS011;20725;51.196;3.510;2023-03-14T08:39:22;5.60;;;5.07;;
15665;SDS011;20725;51.196;3.510;2023-03-14T08:42:39;4.93;;;4.50;;
15665;SDS011;20725;51.196;3.510;2023-03-14T08:48:38;9.17;;;5.10;;
15665;SDS011;20725;51.196;3.510;2023-03-14T08:51:52;13.40;;;5.13;;
15665;SDS011;20725;51.196;3.510;2023-03-14T08:54:51;7.67;;;4.30;;
15665;SDS011;20725;51.196;3.510;2023-03-14T08:57:36;6.47;;;3.60;;
15665;SDS011;20725;51.196;3.510;2023-03-14T09:00:20;4.40;;;3.00;;
15665;SDS011;20725;51.196;3.510;2023-03-14T09:03:24;4.43;;;3.20;;
15665;SDS011;20725;51.196;3.510;2023-03-14T09:05:53;6.93;;;3.50;;
15665;SDS011;20725;51.196;3.510;2023-03-14T09:11:32;12.53;;;4.67;;
15665;SDS011;20725;51.196;3.510;2023-03-14T09:14:56;9.07;;;3.67;;
15665;SDS011;20725;51.196;3.510;2023-03-14T09:17:57;13.47;;;3.43;;
15665;SDS011;20725;51.196;3.510;2023-03-14T09:21:03;11.57;;;3.40;;
15665;SDS011;20725;51.196;3.510;2023-03-14T09:23:34;11.43;;;3.93;;
15665;SDS011;20725;51.196;3.510;2023-03-14T09:26:15;7.40;;;3.20;;
15665;SDS011;20725;51.196;3.510;2023-03-14T09:33:12;5.37;;;2.43;;
15665;SDS011;20725;51.196;3.510;2023-03-14T09:45:03;4.90;;;2.40;;
15665;SDS011;20725;51.196;3.510;2023-03-14T09:47:37;6.43;;;2.30;;
15665;SDS011;20725;51.196;3.510;2023-03-14T09:53:42;6.83;;;2.63;;
15665;SDS011;20725;51.196;3.510;2023-03-14T09:59:39;6.00;;;2.60;;
15665;SDS011;20725;51.196;3.510;2023-03-14T10:02:21;5.47;;;3.33;;
15665;SDS011;20725;51.196;3.510;2023-03-14T10:05:15;10.53;;;3.33;;
15665;SDS011;20725;51.196;3.510;2023-03-14T10:08:09;11.90;;;3.20;;
15665;SDS011;20725;51.196;3.510;2023-03-14T10:34:41;14.50;;;3.17;;
15665;SDS011;20725;51.196;3.510;2023-03-14T10:37:56;6.40;;;2.20;;
15665;SDS011;20725;51.196;3.510;2023-03-14T10:41:25;9.67;;;2.47;;
15665;SDS011;20725;51.196;3.510;2023-03-14T10:44:17;9.63;;;2.40;;
15665;SDS011;20725;51.196;3.510;2023-03-14T10:46:58;6.90;;;2.27;;
15665;SDS011;20725;51.196;3.510;2023-03-14T10:52:22;9.70;;;3.03;;
15665;SDS011;20725;51.196;3.510;2023-03-14T10:55:15;19.07;;;3.30;;
15665;SDS011;20725;51.196;3.510;2023-03-14T10:57:58;9.87;;;3.20;;
15665;SDS011;20725;51.196;3.510;2023-03-14T11:00:25;15.40;;;4.07;;
15665;SDS011;20725;51.196;3.510;2023-03-14T11:03:14;15.40;;;3.47;;
15665;SDS011;20725;51.196;3.510;2023-03-14T11:05:49;12.70;;;3.57;;
15665;SDS011;20725;51.196;3.510;2023-03-14T11:08:26;11.70;;;3.40;;
15665;SDS011;20725;51.196;3.510;2023-03-14T11:11:11;17.43;;;4.17;;
15665;SDS011;20725;51.196;3.510;2023-03-14T11:14:01;16.73;;;3.87;;
15665;SDS011;20725;51.196;3.510;2023-03-14T11:16:47;18.90;;;4.17;;
15665;SDS011;20725;51.196;3.510;2023-03-14T11:19:31;11.83;;;3.63;;
15665;SDS011;20725;51.196;3.510;2023-03-14T11:22:23;11.83;;;3.77;;
15665;SDS011;20725;51.196;3.510;2023-03-14T11:25:10;12.73;;;3.10;;
15665;SDS011;20725;51.196;3.510;2023-03-14T11:27:55;11.93;;;2.83;;
15665;SDS011;20725;51.196;3.510;2023-03-14T11:30:35;12.03;;;3.40;;
15665;SDS011;20725;51.196;3.510;2023-03-14T11:33:13;12.87;;;3.40;;
15665;SDS011;20725;51.196;3.510;2023-03-14T11:36:06;15.50;;;3.60;;
15665;SDS011;20725;51.196;3.510;2023-03-14T11:38:40;15.07;;;3.80;;
15665;SDS011;20725;51.196;3.510;2023-03-14T11:41:17;16.67;;;3.40;;
15665;SDS011;20725;51.196;3.510;2023-03-14T11:43:51;12.70;;;3.50;;
15665;SDS011;20725;51.196;3.510;2023-03-14T11:46:23;14.67;;;3.70;;
15665;SDS011;20725;51.196;3.510;2023-03-14T11:48:57;22.53;;;4.43;;
15665;SDS011;20725;51.196;3.510;2023-03-14T11:51:29;22.20;;;4.30;;
15665;SDS011;20725;51.196;3.510;2023-03-14T11:54:02;12.77;;;4.30;;
15665;SDS011;20725;51.196;3.510;2023-03-14T11:56:42;20.13;;;4.27;;
15665;SDS011;20725;51.196;3.510;2023-03-14T11:59:18;18.87;;;4.63;;
15665;SDS011;20725;51.196;3.510;2023-03-14T12:01:51;19.77;;;4.80;;
15665;SDS011;20725;51.196;3.510;2023-03-14T12:04:23;19.40;;;4.40;;
15665;SDS011;20725;51.196;3.510;2023-03-14T12:07:08;24.93;;;5.80;;
15665;SDS011;20725;51.196;3.510;2023-03-14T12:09:44;25.63;;;5.60;;
15665;SDS011;20725;51.196;3.510;2023-03-14T12:12:24;23.93;;;4.27;;
15665;SDS011;20725;51.196;3.510;2023-03-14T12:14:59;20.03;;;4.53;;
15665;SDS011;20725;51.196;3.510;2023-03-14T12:17:34;20.77;;;4.93;;
15665;SDS011;20725;51.196;3.510;2023-03-14T12:20:04;21.03;;;4.77;;
15665;SDS011;20725;51.196;3.510;2023-03-14T12:22:43;24.33;;;4.70;;
15665;SDS011;20725;51.196;3.510;2023-03-14T12:25:15;21.50;;;5.30;;
15665;SDS011;20725;51.196;3.510;2023-03-14T12:27:49;25.77;;;5.23;;
15665;SDS011;20725;51.196;3.510;2023-03-14T12:30:31;22.37;;;4.63;;
15665;SDS011;20725;51.196;3.510;2023-03-14T12:33:12;15.50;;;4.30;;
15665;SDS011;20725;51.196;3.510;2023-03-14T12:35:57;16.10;;;3.20;;
15665;SDS011;20725;51.196;3.510;2023-03-14T12:38:29;7.67;;;2.70;;
15665;SDS011;20725;51.196;3.510;2023-03-14T12:41:06;10.20;;;3.30;;
15665;SDS011;20725;51.196;3.510;2023-03-14T12:43:41;10.37;;;3.20;;
15665;SDS011;20725;51.196;3.510;2023-03-14T12:49:03;17.27;;;3.83;;
15665;SDS011;20725;51.196;3.510;2023-03-14T12:51:35;20.40;;;3.90;;
15665;SDS011;20725;51.196;3.510;2023-03-14T12:54:14;11.27;;;3.20;;
15665;SDS011;20725;51.196;3.510;2023-03-14T12:56:55;13.10;;;4.03;;
15665;SDS011;20725;51.196;3.510;2023-03-14T12:59:34;17.07;;;3.30;;
15665;SDS011;20725;51.196;3.510;2023-03-14T13:02:10;15.17;;;3.40;;
15665;SDS011;20725;51.196;3.510;2023-03-14T13:04:47;14.37;;;3.90;;
15665;SDS011;20725;51.196;3.510;2023-03-14T13:07:29;14.47;;;3.50;;
15665;SDS011;20725;51.196;3.510;2023-03-14T13:10:05;17.33;;;3.53;;
15665;SDS011;20725;51.196;3.510;2023-03-14T13:12:47;15.57;;;3.83;;
15665;SDS011;20725;51.196;3.510;2023-03-14T13:15:17;13.00;;;3.43;;
15665;SDS011;20725;51.196;3.510;2023-03-14T13:17:51;12.77;;;2.97;;
15665;SDS011;20725;51.196;3.510;2023-03-14T13:20:23;8.33;;;2.37;;
15665;SDS011;20725;51.196;3.510;2023-03-14T13:22:56;8.73;;;2.20;;
15665;SDS011;20725;51.196;3.510;2023-03-14T13:25:24;10.20;;;2.87;;
15665;SDS011;20725;51.196;3.510;2023-03-14T13:27:57;11.13;;;3.00;;
15665;SDS011;20725;51.196;3.510;2023-03-14T13:30:28;8.57;;;2.77;;
15665;SDS011;20725;51.196;3.510;2023-03-14T13:33:05;5.63;;;2.37;;
15665;SDS011;20725;51.196;3.510;2023-03-14T13:35:39;6.57;;;1.77;;
15665;SDS011;20725;51.196;3.510;2023-03-14T13:38:13;5.60;;;1.80;;
15665;SDS011;20725;51.196;3.510;2023-03-14T13:40:47;3.60;;;1.70;;
15665;SDS011;20725;51.196;3.510;2023-03-14T13:43:22;5.33;;;1.70;;
15665;SDS011;20725;51.196;3.510;2023-03-14T13:46:00;6.07;;;1.80;;
15665;SDS011;20725;51.196;3.510;2023-03-14T13:48:41;4.37;;;1.70;;
15665;SDS011;20725;51.196;3.510;2023-03-14T13:51:25;2.27;;;1.40;;
15665;SDS011;20725;51.196;3.510;2023-03-14T13:53:56;3.23;;;1.70;;
15665;SDS011;20725;51.196;3.510;2023-03-14T13:56:35;4.13;;;1.90;;
15665;SDS011;20725;51.196;3.510;2023-03-14T13:59:20;1.63;;;1.47;;
15665;SDS011;20725;51.196;3.510;2023-03-14T14:01:59;3.23;;;1.40;;
15665;SDS011;20725;51.196;3.510;2023-03-14T14:04:33;1.63;;;1.30;;
15665;SDS011;20725;51.196;3.510;2023-03-14T14:07:06;1.73;;;1.30;;
15665;SDS011;20725;51.196;3.510;2023-03-14T14:09:41;3.37;;;1.60;;
15665;SDS011;20725;51.196;3.510;2023-03-14T14:12:15;3.83;;;1.70;;
15665;SDS011;20725;51.196;3.510;2023-03-14T14:14:56;5.90;;;2.23;;
15665;SDS011;20725;51.196;3.510;2023-03-14T14:17:45;5.67;;;2.23;;
15665;SDS011;20725;51.196;3.510;2023-03-14T14:20:21;4.40;;;1.83;;
15665;SDS011;20725;51.196;3.510;2023-03-14T14:23:02;6.33;;;2.37;;
15665;SDS011;20725;51.196;3.510;2023-03-14T14:25:36;3.87;;;2.20;;
15665;SDS011;20725;51.196;3.510;2023-03-14T14:31:20;7.30;;;1.80;;
15665;SDS011;20725;51.196;3.510;2023-03-14T14:34:38;5.13;;;2.10;;
15665;SDS011;20725;51.196;3.510;2023-03-14T14:37:22;4.53;;;1.80;;
15665;SDS011;20725;51.196;3.510;2023-03-14T14:39:56;4.07;;;1.80;;
15665;SDS011;20725;51.196;3.510;2023-03-14T14:42:40;11.07;;;3.20;;
15665;SDS011;20725;51.196;3.510;2023-03-14T14:45:22;13.90;;;2.73;;
15665;SDS011;20725;51.196;3.510;2023-03-14T14:48:17;8.03;;;2.50;;
15665;SDS011;20725;51.196;3.510;2023-03-14T14:50:59;10.53;;;2.60;;
15665;SDS011;20725;51.196;3.510;2023-03-14T14:53:43;16.67;;;3.57;;
15665;SDS011;20725;51.196;3.510;2023-03-14T14:56:16;12.70;;;2.97;;
15665;SDS011;20725;51.196;3.510;2023-03-14T14:58:58;12.07;;;3.20;;
15665;SDS011;20725;51.196;3.510;2023-03-14T15:02:04;5.07;;;2.77;;
15665;SDS011;20725;51.196;3.510;2023-03-14T15:04:59;9.47;;;2.70;;
15665;SDS011;20725;51.196;3.510;2023-03-14T15:07:48;11.13;;;2.60;;
15665;SDS011;20725;51.196;3.510;2023-03-14T15:10:34;12.83;;;2.40;;
15665;SDS011;20725;51.196;3.510;2023-03-14T15:13:21;6.30;;;2.47;;
15665;SDS011;20725;51.196;3.510;2023-03-14T15:16:09;9.23;;;2.77;;
15665;SDS011;20725;51.196;3.510;2023-03-14T15:18:44;15.47;;;3.07;;
15665;SDS011;20725;51.196;3.510;2023-03-14T15:21:41;9.00;;;2.70;;
15665;SDS011;20725;51.196;3.510;2023-03-14T15:24:36;7.53;;;3.07;;
15665;SDS011;20725;51.196;3.510;2023-03-14T15:27:15;8.37;;;2.63;;
15665;SDS011;20725;51.196;3.510;2023-03-14T15:30:08;11.60;;;3.00;;
15665;SDS011;20725;51.196;3.510;2023-03-14T15:32:43;12.00;;;3.10;;
15665;SDS011;20725;51.196;3.510;2023-03-14T15:35:28;9.53;;;2.80;;
15665;SDS011;20725;51.196;3.510;2023-03-14T15:37:57;10.40;;;2.97;;
15665;SDS011;20725;51.196;3.510;2023-03-14T15:40:42;8.87;;;2.53;;
15665;SDS011;20725;51.196;3.510;2023-03-14T15:43:32;10.20;;;3.10;;
15665;SDS011;20725;51.196;3.510;2023-03-14T15:46:07;8.73;;;2.70;;
15665;SDS011;20725;51.196;3.510;2023-03-14T15:48:58;11.07;;;2.77;;
15665;SDS011;20725;51.196;3.510;2023-03-14T15:58:20;5.43;;;2.00;;
15665;SDS011;20725;51.196;3.510;2023-03-14T16:01:07;7.67;;;2.70;;
15665;SDS011;20725;51.196;3.510;2023-03-14T16:03:41;9.00;;;2.67;;
15665;SDS011;20725;51.196;3.510;2023-03-14T16:06:29;11.50;;;2.83;;
15665;SDS011;20725;51.196;3.510;2023-03-14T16:09:30;5.97;;;2.37;;
15665;SDS011;20725;51.196;3.510;2023-03-14T16:12:13;7.67;;;2.73;;
15665;SDS011;20725;51.196;3.510;2023-03-14T16:15:00;11.53;;;3.13;;
15665;SDS011;20725;51.196;3.510;2023-03-14T16:17:40;6.13;;;2.90;;
15665;SDS011;20725;51.196;3.510;2023-03-14T16:20:23;5.03;;;2.47;;
15665;SDS011;20725;51.196;3.510;2023-03-14T16:22:51;10.93;;;3.67;;
15665;SDS011;20725;51.196;3.510;2023-03-14T16:25:24;10.47;;;2.60;;
15665;SDS011;20725;51.196;3.510;2023-03-14T16:28:17;8.03;;;3.07;;
15665;SDS011;20725;51.196;3.510;2023-03-14T16:30:55;7.67;;;2.50;;
15665;SDS011;20725;51.196;3.510;2023-03-14T16:33:43;11.27;;;2.87;;
15665;SDS011;20725;51.196;3.510;2023-03-14T16:36:23;9.27;;;2.90;;
15665;SDS011;20725;51.196;3.510;2023-03-14T16:39:01;7.40;;;2.53;;
15665;SDS011;20725;51.196;3.510;2023-03-14T16:41:37;8.53;;;2.87;;
15665;SDS011;20725;51.196;3.510;2023-03-14T16:44:12;10.73;;;3.23;;
15665;SDS011;20725;51.196;3.510;2023-03-14T16:46:48;8.60;;;2.87;;
15665;SDS011;20725;51.196;3.510;2023-03-14T16:49:40;12.20;;;3.40;;
15665;SDS011;20725;51.196;3.510;2023-03-14T16:52:08;12.13;;;3.30;;
15665;SDS011;20725;51.196;3.510;2023-03-14T16:54:36;10.67;;;3.57;;
15665;SDS011;20725;51.196;3.510;2023-03-14T16:57:09;11.07;;;3.73;;
15665;SDS011;20725;51.196;3.510;2023-03-14T16:59:49;15.73;;;5.07;;
15665;SDS011;20725;51.196;3.510;2023-03-14T17:02:19;13.00;;;4.53;;
15665;SDS011;20725;51.196;3.510;2023-03-14T17:04:59;13.53;;;3.40;;
15665;SDS011;20725;51.196;3.510;2023-03-14T17:07:27;14.37;;;4.43;;
15665;SDS011;20725;51.196;3.510;2023-03-14T17:09:55;13.30;;;5.13;;
15665;SDS011;20725;51.196;3.510;2023-03-14T17:12:26;17.43;;;5.73;;
15665;SDS011;20725;51.196;3.510;2023-03-14T17:14:56;18.43;;;5.80;;
15665;SDS011;20725;51.196;3.510;2023-03-14T17:17:29;18.90;;;4.87;;
15665;SDS011;20725;51.196;3.510;2023-03-14T17:20:00;15.93;;;4.37;;
15665;SDS011;20725;51.196;3.510;2023-03-14T17:22:31;13.47;;;4.53;;
15665;SDS011;20725;51.196;3.510;2023-03-14T17:25:01;17.17;;;4.73;;
15665;SDS011;20725;51.196;3.510;2023-03-14T17:27:32;19.33;;;4.93;;
15665;SDS011;20725;51.196;3.510;2023-03-14T17:30:05;15.67;;;4.43;;
15665;SDS011;20725;51.196;3.510;2023-03-14T17:32:40;19.27;;;4.63;;